createdAt,value
2023-05-05T00:00:25.965Z,98439.44
2023-05-05T00:03:30.472Z,98426.19
2023-05-05T00:06:33.249Z,98430.19
2023-05-05T00:09:36.029Z,98434.91
2023-05-05T00:12:38.652Z,98430.72
2023-05-05T00:15:46.202Z,98426.00
2023-05-05T00:18:48.928Z,98424.25
2023-05-05T00:21:51.696Z,98434.84
2023-05-05T00:24:54.312Z,98420.94
2023-05-05T00:27:57.042Z,98432.13
2023-05-05T00:31:00.390Z,98424.78
2023-05-05T00:34:03.803Z,98421.88
2023-05-05T00:37:06.726Z,98421.44
2023-05-05T00:40:10.454Z,98414.66
2023-05-05T00:43:13.304Z,98425.59
2023-05-05T00:46:24.849Z,98416.81
2023-05-05T00:49:27.810Z,98425.81
2023-05-05T00:52:30.871Z,98415.88
2023-05-05T00:55:35.036Z,98415.09
2023-05-05T00:58:37.784Z,98410.94
2023-05-05T01:01:40.768Z,98412.75
2023-05-05T01:04:43.826Z,98417.03
2023-05-05T01:08:05.250Z,98410.16
2023-05-05T01:11:32.751Z,98415.88
2023-05-05T01:14:41.074Z,98411.13
2023-05-05T01:18:07.429Z,98419.34
2023-05-05T01:21:16.023Z,98407.66
2023-05-05T01:24:40.788Z,98405.16
2023-05-05T01:28:11.258Z,98397.38
2023-05-05T01:31:35.478Z,98398.97
2023-05-05T01:34:42.413Z,98400.53
2023-05-05T01:37:49.458Z,98403.34
2023-05-05T01:40:59.178Z,98398.84
2023-05-05T01:44:03.826Z,98404.97
2023-05-05T01:47:06.834Z,98399.25
2023-05-05T01:50:10.727Z,98406.75
2023-05-05T01:53:14.214Z,98407.16
2023-05-05T01:56:19.636Z,98401.91
2023-05-05T01:59:24.152Z,98409.38
2023-05-05T02:02:28.721Z,98411.88
2023-05-05T02:05:33.249Z,98408.31
2023-05-05T02:08:36.836Z,98410.28
2023-05-05T02:11:40.169Z,98399.50
2023-05-05T02:14:43.628Z,98408.56
2023-05-05T02:17:47.160Z,98405.53
2023-05-05T02:20:50.091Z,98413.53
2023-05-05T02:23:53.267Z,98403.31
2023-05-05T02:26:57.460Z,98408.63
2023-05-05T02:30:04.941Z,98397.44
2023-05-05T02:33:10.735Z,98393.28
2023-05-05T02:36:18.305Z,98394.25
2023-05-05T02:39:32.684Z,98399.41
2023-05-05T02:42:41.671Z,98397.44
2023-05-05T02:45:46.700Z,98400.63
2023-05-05T02:48:51.164Z,98398.91
2023-05-05T02:51:54.379Z,98395.19
2023-05-05T02:55:03.956Z,98393.97
2023-05-05T02:58:56.782Z,98401.97
2023-05-05T03:02:19.118Z,98404.34
2023-05-05T03:05:24.202Z,98400.59
2023-05-05T03:08:41.481Z,98404.69
2023-05-05T03:11:48.233Z,98406.56
2023-05-05T03:14:55.301Z,98406.38
2023-05-05T03:18:00.390Z,98396.88
2023-05-05T03:21:11.599Z,98396.38
2023-05-05T03:24:18.952Z,98410.25
2023-05-05T03:27:32.662Z,98413.84
2023-05-05T03:30:35.651Z,98413.59
2023-05-05T03:33:38.769Z,98404.59
2023-05-05T03:36:42.111Z,98405.47
2023-05-05T03:39:47.954Z,98413.53
2023-05-05T03:42:51.023Z,98409.75
2023-05-05T03:45:53.877Z,98418.56
2023-05-05T03:48:57.462Z,98413.56
2023-05-05T03:52:02.011Z,98414.31
2023-05-05T03:55:05.667Z,98415.19
2023-05-05T03:58:08.394Z,98419.44
2023-05-05T04:01:11.309Z,98421.00
2023-05-05T04:04:14.078Z,98412.31
2023-05-05T04:07:16.886Z,98414.69
2023-05-05T04:10:20.090Z,98419.19
2023-05-05T04:13:22.857Z,98414.66
2023-05-05T04:16:26.470Z,98415.63
2023-05-05T04:19:32.618Z,98423.56
2023-05-05T04:22:36.653Z,98424.09
2023-05-05T04:25:39.497Z,98426.28
2023-05-05T04:28:42.601Z,98433.81
2023-05-05T04:31:45.763Z,98428.59
2023-05-05T04:34:48.705Z,98434.53
2023-05-05T04:37:53.811Z,98437.88
2023-05-05T04:40:56.886Z,98444.97
2023-05-05T04:43:59.690Z,98441.47
2023-05-05T04:47:03.263Z,98457.22
2023-05-05T04:50:07.899Z,98448.06
2023-05-05T04:53:11.559Z,98452.50
2023-05-05T04:56:15.151Z,98455.69
2023-05-05T04:59:21.046Z,98462.28
2023-05-05T05:02:24.185Z,98458.69
2023-05-05T05:05:27.251Z,98463.72
2023-05-05T05:08:30.123Z,98460.19
2023-05-05T05:11:33.015Z,98457.50
2023-05-05T05:14:39.938Z,98460.84
2023-05-05T05:17:42.726Z,98458.97
2023-05-05T05:20:45.520Z,98459.88
2023-05-05T05:23:49.456Z,98462.53
2023-05-05T05:26:52.450Z,98455.91
2023-05-05T05:29:55.555Z,98463.56
2023-05-05T05:32:58.393Z,98459.63
2023-05-05T05:36:01.162Z,98460.34
2023-05-05T05:39:03.937Z,98463.41
2023-05-05T05:42:06.762Z,98466.88
2023-05-05T05:45:10.268Z,98471.13
2023-05-05T05:48:13.687Z,98468.56
2023-05-05T05:51:16.887Z,98465.63
2023-05-05T05:54:20.030Z,98468.44
2023-05-05T05:57:24.917Z,98463.75
2023-05-05T06:00:28.125Z,98469.91
2023-05-05T06:03:38.055Z,98467.75
2023-05-05T06:06:41.436Z,98467.63
2023-05-05T06:09:44.132Z,98466.47
2023-05-05T06:12:46.829Z,98470.69
2023-05-05T06:15:49.761Z,98470.41
2023-05-05T06:18:53.533Z,98473.25
2023-05-05T06:21:56.590Z,98467.16
2023-05-05T06:24:59.386Z,98477.09
2023-05-05T06:28:02.506Z,98472.28
2023-05-05T06:31:05.341Z,98472.38
2023-05-05T06:34:08.084Z,98470.88
2023-05-05T06:37:11.307Z,98475.91
2023-05-05T06:40:13.970Z,98465.63
2023-05-05T06:43:17.661Z,98471.00
2023-05-05T06:46:27.615Z,98470.09
2023-05-05T06:49:30.480Z,98466.34
2023-05-05T06:52:33.242Z,98467.13
2023-05-05T06:55:36.057Z,98466.69
2023-05-05T06:58:38.956Z,98474.72
2023-05-05T07:01:41.752Z,98469.50
2023-05-05T07:04:44.627Z,98472.31
2023-05-05T07:07:52.911Z,98473.78
2023-05-05T07:10:55.881Z,98470.63
2023-05-05T07:13:58.980Z,98472.63
2023-05-05T07:17:01.777Z,98472.31
2023-05-05T07:20:04.769Z,98477.56
2023-05-05T07:23:07.978Z,98470.78
2023-05-05T07:26:10.837Z,98468.94
2023-05-05T07:29:13.805Z,98463.75
2023-05-05T07:32:16.735Z,98464.34
2023-05-05T07:35:19.607Z,98464.19
2023-05-05T07:38:22.412Z,98452.38
2023-05-05T07:41:25.069Z,98452.25
2023-05-05T07:44:28.373Z,98458.53
2023-05-05T07:47:31.581Z,98455.28
2023-05-05T07:50:34.214Z,98446.22
2023-05-05T07:53:37.387Z,98440.66
2023-05-05T07:56:40.302Z,98451.03
2023-05-05T07:59:46.037Z,98451.16
2023-05-05T08:02:49.202Z,98453.22
2023-05-05T08:05:56.324Z,98450.34
2023-05-05T08:09:02.946Z,98452.50
2023-05-05T08:12:06.161Z,98451.75
2023-05-05T08:15:09.484Z,98440.03
2023-05-05T08:18:12.836Z,98446.47
2023-05-05T08:21:15.611Z,98448.09
2023-05-05T08:24:18.738Z,98436.78
2023-05-05T08:27:21.381Z,98448.88
2023-05-05T08:30:24.538Z,98437.00
2023-05-05T08:33:27.454Z,98440.06
2023-05-05T08:36:30.258Z,98439.81
2023-05-05T08:39:32.907Z,98434.69
2023-05-05T08:42:38.487Z,98435.72
2023-05-05T08:45:42.783Z,98436.88
2023-05-05T08:48:46.303Z,98428.09
2023-05-05T08:51:49.232Z,98425.28
2023-05-05T08:54:56.604Z,98431.00
2023-05-05T08:58:01.568Z,98427.72
2023-05-05T09:01:05.069Z,98427.09
2023-05-05T09:04:09.274Z,98420.09
2023-05-05T09:07:12.308Z,98417.03
2023-05-05T09:10:15.146Z,98408.06
2023-05-05T09:13:29.913Z,98411.84
2023-05-05T09:16:32.546Z,98405.97
2023-05-05T09:19:56.727Z,98404.16
2023-05-05T09:23:08.391Z,98404.75
2023-05-05T09:26:11.253Z,98395.16
2023-05-05T09:29:21.276Z,98384.16
2023-05-05T09:32:25.446Z,98387.66
2023-05-05T09:35:28.359Z,98381.97
2023-05-05T09:38:30.991Z,98376.13
2023-05-05T09:41:40.786Z,98383.94
2023-05-05T09:44:43.432Z,98377.41
2023-05-05T09:47:47.270Z,98383.78
2023-05-05T09:50:50.280Z,98377.94
2023-05-05T09:53:52.994Z,98372.94
2023-05-05T09:56:57.222Z,98380.72
2023-05-05T10:00:01.504Z,98374.66
2023-05-05T10:03:08.489Z,98366.03
2023-05-05T10:06:11.143Z,98374.53
2023-05-05T10:09:15.288Z,98371.88
2023-05-05T10:12:18.348Z,98369.69
2023-05-05T10:15:21.644Z,98370.19
2023-05-05T10:18:28.754Z,98366.91
2023-05-05T10:21:37.125Z,98364.66
2023-05-05T10:24:43.759Z,98357.03
2023-05-05T10:27:47.062Z,98372.41
2023-05-05T10:30:52.246Z,98357.94
2023-05-05T10:34:07.116Z,98354.41
2023-05-05T10:37:12.461Z,98347.84
2023-05-05T10:40:16.981Z,98341.41
2023-05-05T10:43:19.880Z,98346.63
2023-05-05T10:46:22.769Z,98340.63
2023-05-05T10:49:45.228Z,98337.16
2023-05-05T10:52:57.116Z,98340.09
2023-05-05T10:56:16.851Z,98332.25
2023-05-05T10:59:38.377Z,98332.97
2023-05-05T11:02:41.837Z,98330.66
2023-05-05T11:06:07.962Z,98324.75
2023-05-05T11:09:29.526Z,98325.78
2023-05-05T11:12:35.528Z,98327.75
2023-05-05T11:15:40.165Z,98322.47
2023-05-05T11:18:46.053Z,98318.75
2023-05-05T11:22:00.555Z,98307.56
2023-05-05T11:25:35.924Z,98313.09
2023-05-05T11:28:58.308Z,98321.75
2023-05-05T11:32:14.718Z,98316.81
2023-05-05T11:35:17.729Z,98311.16
2023-05-05T11:38:23.842Z,98313.16
2023-05-05T11:41:32.682Z,98316.84
2023-05-05T11:44:36.224Z,98310.41
2023-05-05T11:47:42.298Z,98306.59
2023-05-05T11:50:45.524Z,98305.78
2023-05-05T11:53:49.296Z,98306.31
2023-05-05T11:57:05.405Z,98301.34
2023-05-05T12:00:09.409Z,98312.91
2023-05-05T12:03:12.844Z,98305.41
2023-05-05T12:06:15.713Z,98310.13
2023-05-05T12:09:22.827Z,98302.53
2023-05-05T12:12:40.437Z,98297.34
2023-05-05T12:15:43.496Z,98300.84
2023-05-05T12:18:46.240Z,98304.28
2023-05-05T12:21:49.107Z,98301.22
2023-05-05T12:24:59.380Z,98302.53
2023-05-05T12:28:02.218Z,98302.97
2023-05-05T12:31:04.939Z,98294.00
2023-05-05T12:34:09.659Z,98289.88
2023-05-05T12:37:12.657Z,98291.81
2023-05-05T12:40:47.547Z,98287.00
2023-05-05T12:43:56.871Z,98289.53
2023-05-05T12:47:00.199Z,98286.91
2023-05-05T12:50:04.120Z,98285.69
2023-05-05T12:53:06.845Z,98275.53
2023-05-05T12:56:33.442Z,98273.59
2023-05-05T12:59:36.854Z,98276.34
2023-05-05T13:02:39.715Z,98261.06
2023-05-05T13:05:42.560Z,98270.22
2023-05-05T13:08:45.357Z,98257.09
2023-05-05T13:11:48.095Z,98248.19
2023-05-05T13:14:50.880Z,98241.53
2023-05-05T13:18:01.731Z,98239.75
2023-05-05T13:21:04.718Z,98237.13
2023-05-05T13:27:13.087Z,98235.97
2023-05-05T13:30:15.863Z,98231.72
2023-05-05T13:33:18.627Z,98224.16
2023-05-05T13:36:21.405Z,98217.19
2023-05-05T13:39:24.305Z,98214.41
2023-05-05T13:42:27.054Z,98212.63
2023-05-05T13:45:29.766Z,98206.63
2023-05-05T13:48:32.739Z,98205.47
2023-05-05T13:51:35.598Z,98197.34
2023-05-05T13:54:38.723Z,98194.31
2023-05-05T13:57:41.402Z,98203.28
2023-05-05T14:00:45.058Z,98191.81
2023-05-05T14:03:48.074Z,98189.78
2023-05-05T14:06:51.070Z,98191.03
2023-05-05T14:09:53.885Z,98178.53
2023-05-05T14:12:57.142Z,98186.28
2023-05-05T14:16:00.208Z,98176.31
2023-05-05T14:19:02.918Z,98176.31
2023-05-05T14:22:06.139Z,98172.81
2023-05-05T14:25:09.365Z,98164.06
2023-05-05T14:28:12.148Z,98161.53
2023-05-05T14:31:15.187Z,98156.28
2023-05-05T14:34:18.147Z,98163.78
2023-05-05T14:37:21.153Z,98164.28
2023-05-05T14:40:24.076Z,98162.03
2023-05-05T14:43:27.251Z,98164.84
2023-05-05T14:46:30.316Z,98158.56
2023-05-05T14:49:33.202Z,98156.91
2023-05-05T14:52:39.706Z,98156.44
2023-05-05T14:55:42.435Z,98156.06
2023-05-05T14:58:47.308Z,98157.44
2023-05-05T15:01:51.531Z,98153.88
2023-05-05T15:05:00.056Z,98155.81
2023-05-05T15:08:10.252Z,98155.47
2023-05-05T15:11:14.194Z,98158.41
2023-05-05T15:14:17.069Z,98152.63
2023-05-05T15:17:20.182Z,98156.44
2023-05-05T15:20:23.221Z,98156.00
2023-05-05T15:23:25.961Z,98155.06
2023-05-05T15:26:28.902Z,98152.41
2023-05-05T15:29:31.741Z,98147.06
2023-05-05T15:32:34.893Z,98150.63
2023-05-05T15:35:38.014Z,98153.47
2023-05-05T15:38:46.526Z,98152.28
2023-05-05T15:41:52.322Z,98153.00
2023-05-05T15:44:55.033Z,98150.81
2023-05-05T15:47:57.753Z,98150.00
2023-05-05T15:51:00.388Z,98151.75
2023-05-05T15:54:03.071Z,98154.47
2023-05-05T15:57:05.904Z,98143.50
2023-05-05T16:00:09.794Z,98148.06
2023-05-05T16:03:16.399Z,98154.91
2023-05-05T16:06:19.138Z,98141.56
2023-05-05T16:09:22.188Z,98146.75
2023-05-05T16:12:25.545Z,98140.09
2023-05-05T16:15:28.413Z,98135.56
2023-05-05T16:18:31.194Z,98135.22
2023-05-05T16:21:33.922Z,98136.38
2023-05-05T16:24:36.910Z,98133.69
2023-05-05T16:27:39.735Z,98136.22
2023-05-05T16:30:43.589Z,98132.94
2023-05-05T16:33:46.766Z,98130.03
2023-05-05T16:36:49.800Z,98141.75
2023-05-05T16:39:52.764Z,98129.78
2023-05-05T16:42:55.449Z,98123.25
2023-05-05T16:45:58.392Z,98120.28
2023-05-05T16:49:01.255Z,98119.00
2023-05-05T16:52:04.138Z,98122.03
2023-05-05T16:55:07.597Z,98118.25
2023-05-05T16:58:10.573Z,98127.75
2023-05-05T17:01:13.579Z,98122.66
2023-05-05T17:04:16.354Z,98122.47
2023-05-05T17:07:19.117Z,98124.84
2023-05-05T17:10:21.936Z,98125.25
2023-05-05T17:13:24.741Z,98128.59
2023-05-05T17:16:27.426Z,98129.94
2023-05-05T17:19:30.289Z,98127.31
2023-05-05T17:22:33.218Z,98115.25
2023-05-05T17:25:36.298Z,98126.97
2023-05-05T17:28:39.063Z,98120.50
2023-05-05T17:31:42.448Z,98130.16
2023-05-05T17:34:45.208Z,98123.84
2023-05-05T17:37:48.124Z,98129.41
2023-05-05T17:40:53.777Z,98128.16
2023-05-05T17:43:56.711Z,98126.31
2023-05-05T17:46:59.875Z,98130.78
2023-05-05T17:50:02.742Z,98131.97
2023-05-05T17:53:05.505Z,98131.13
2023-05-05T17:56:09.041Z,98131.50
2023-05-05T17:59:12.096Z,98136.53
2023-05-05T18:02:14.826Z,98139.59
2023-05-05T18:05:17.675Z,98142.97
2023-05-05T18:08:20.555Z,98139.03
2023-05-05T18:11:27.833Z,98136.53
2023-05-05T18:14:30.750Z,98138.03
2023-05-05T18:17:34.152Z,98142.50
2023-05-05T18:20:37.045Z,98148.16
2023-05-05T18:23:40.643Z,98146.94
2023-05-05T18:26:43.759Z,98151.59
2023-05-05T18:29:46.676Z,98148.34
2023-05-05T18:32:49.688Z,98153.47
2023-05-05T18:35:52.682Z,98158.94
2023-05-05T18:38:55.717Z,98157.50
2023-05-05T18:41:58.771Z,98164.13
2023-05-05T18:45:02.030Z,98158.09
2023-05-05T18:48:05.437Z,98165.03
2023-05-05T18:51:08.744Z,98168.53
2023-05-05T18:54:11.757Z,98168.00
2023-05-05T18:57:14.580Z,98175.94
2023-05-05T19:00:20.384Z,98182.25
2023-05-05T19:03:23.696Z,98169.25
2023-05-05T19:06:26.492Z,98182.31
2023-05-05T19:09:29.466Z,98180.63
2023-05-05T19:12:32.809Z,98176.72
2023-05-05T19:15:36.275Z,98179.59
2023-05-05T19:18:39.391Z,98179.06
2023-05-05T19:21:43.621Z,98180.38
2023-05-05T19:24:46.635Z,98179.06
2023-05-05T19:27:49.674Z,98187.06
2023-05-05T19:30:52.781Z,98182.19
2023-05-05T19:34:01.553Z,98186.53
2023-05-05T19:37:04.546Z,98168.94
2023-05-05T19:40:09.109Z,98170.97
2023-05-05T19:43:12.202Z,98171.78
2023-05-05T19:46:15.127Z,98180.84
2023-05-05T19:49:19.623Z,98173.84
2023-05-05T19:52:23.002Z,98175.59
2023-05-05T19:55:26.092Z,98174.44
2023-05-05T19:58:28.886Z,98179.97
2023-05-05T20:01:31.963Z,98177.50
2023-05-05T20:04:34.825Z,98185.13
2023-05-05T20:07:37.505Z,98171.97
2023-05-05T20:10:40.578Z,98174.63
2023-05-05T20:13:43.594Z,98178.94
2023-05-05T20:16:46.303Z,98178.31
2023-05-05T20:19:51.237Z,98171.38
2023-05-05T20:22:54.230Z,98171.56
2023-05-05T20:25:59.484Z,98167.41
2023-05-05T20:29:02.252Z,98167.13
2023-05-05T20:32:06.199Z,98169.44
2023-05-05T20:35:09.660Z,98165.16
2023-05-05T20:38:12.414Z,98163.34
2023-05-05T20:41:15.890Z,98165.50
2023-05-05T20:44:19.627Z,98165.38
2023-05-05T20:47:22.639Z,98153.19
2023-05-05T20:50:25.623Z,98156.34
2023-05-05T20:53:28.502Z,98161.97
2023-05-05T20:56:31.296Z,98153.91
2023-05-05T20:59:34.007Z,98154.22
2023-05-05T21:02:36.928Z,98156.88
2023-05-05T21:05:41.373Z,98153.09
2023-05-05T21:08:44.203Z,98149.81
2023-05-05T21:11:46.982Z,98147.19
2023-05-05T21:14:49.818Z,98153.13
2023-05-05T21:17:52.615Z,98155.41
2023-05-05T21:20:55.484Z,98144.53
2023-05-05T21:23:58.292Z,98147.31
2023-05-05T21:27:01.314Z,98146.00
2023-05-05T21:30:04.250Z,98145.03
2023-05-05T21:33:07.060Z,98139.72
2023-05-05T21:36:10.076Z,98139.72
2023-05-05T21:39:13.042Z,98133.28
2023-05-05T21:42:16.458Z,98136.25
2023-05-05T21:45:19.353Z,98139.38
2023-05-05T21:48:22.164Z,98138.53
2023-05-05T21:51:25.330Z,98138.38
2023-05-05T21:54:28.027Z,98136.31
2023-05-05T21:57:30.982Z,98139.22
2023-05-05T22:00:33.834Z,98141.16
2023-05-05T22:03:36.847Z,98142.00
2023-05-05T22:06:39.691Z,98138.06
2023-05-05T22:09:43.455Z,98135.72
2023-05-05T22:12:49.398Z,98139.00
2023-05-05T22:15:52.388Z,98140.84
2023-05-05T22:18:55.272Z,98141.66
2023-05-05T22:21:59.154Z,98137.66
2023-05-05T22:25:02.677Z,98129.78
2023-05-05T22:28:05.614Z,98135.84
2023-05-05T22:31:08.605Z,98142.25
2023-05-05T22:34:12.160Z,98135.50
2023-05-05T22:37:14.914Z,98127.28
2023-05-05T22:40:17.934Z,98132.53
2023-05-05T22:43:20.856Z,98139.75
2023-05-05T22:46:23.819Z,98132.03
2023-05-05T22:49:27.951Z,98129.72
2023-05-05T22:52:30.945Z,98136.47
2023-05-05T22:55:34.390Z,98129.75
2023-05-05T22:58:37.101Z,98128.91
2023-05-05T23:01:39.975Z,98131.53
2023-05-05T23:04:45.182Z,98140.72
2023-05-05T23:07:48.171Z,98133.78
2023-05-05T23:10:51.172Z,98131.16
2023-05-05T23:13:54.562Z,98134.78
2023-05-05T23:16:57.358Z,98135.22
2023-05-05T23:20:00.131Z,98142.13
2023-05-05T23:23:02.841Z,98139.69
2023-05-05T23:26:05.589Z,98142.84
2023-05-05T23:29:08.431Z,98137.75
2023-05-05T23:32:11.210Z,98132.75
2023-05-05T23:35:13.994Z,98134.84
2023-05-05T23:38:16.769Z,98125.94
2023-05-05T23:41:19.781Z,98115.72
2023-05-05T23:44:22.781Z,98114.53
2023-05-05T23:47:25.515Z,98113.91
2023-05-05T23:50:28.300Z,98116.88
2023-05-05T23:53:31.208Z,98116.56
2023-05-05T23:56:33.900Z,98110.66
2023-05-05T23:59:36.614Z,98113.41
